Tiempo atmosférico en la estación meteorológica de Villacarriedo, Cantabria (194 m.)



Fecha
DESCASC
Temp. máxima en grados centígrados (hora)
DESCASC
Temp. mínima en grados centígrados (hora)
DESCASC
Temp. media en grados centígrados
DESCASC
Racha de viento máxima en m/sg (hora)
DESCASC
Velocidad máxima media en intervalos de 10 minutos(hora)
DESCASC
Precipitaciones diarias en mm
DESCASC
Precipitaciones de 00:00 a 06:00 en mm
DESCASC
Precipitaciones de 06:00 a 12:00 en mm
DESCASC
Precipitaciones de 12:00 a 18:00 en mm
DESCASC
Precipitaciones de 18:00 a 24:00 en mm
DESCASC
05-12-2019 10.9 (15:50) 5.2 (23:59) 8 6.67 (00:30) 3.33 (00:30) 1 1 0 0 0
04-12-2019 12 (14:10) -0.2 (02:50) 5.9 5.83 (05:40) 3.89 (05:40) 0.6 0 0 0 0.6
03-12-2019 9.4 (15:00) 0.5 (00:00) 4.9 5 (15:10) 3.06 (15:10) 0 0 0 0 0
02-12-2019 9.7 (10:20) 7 (00:00) 8.3 9.17 (13:10) 5 (13:50) 10.6 6.2 4.4 0 0
01-12-2019 13.1 (13:20) 3.5 (00:00) 8.3 9.17 (17:30) 5.56 (03:50) 27 0 0 6.2 20.8
30-11-2019 17.5 (07:30) 4.2 (00:00) 10.8 17.78 (06:50) 10.28 (02:50) 17.8 0 10.4 7 0.4
29-11-2019 16.7 (14:00) 7 (00:00) 11.9 7.78 (23:59) 3.89 (23:59) 2.6 2.4 0.2 0 0
28-11-2019 12 (23:10) 6.5 (00:00) 9.3 4.17 (23:10) 2.5 (19:30) 5.4 0 0 4.2 1.2
27-11-2019 15.8 (13:30) 8.2 (00:00) 12 13.33 (14:30) 7.5 (11:50) 0.4 0 0 0.4 0
26-11-2019 20.1 (16:10) 10.4 (00:00) 15.3 18.61 (09:40) 12.22 (09:40) 1.8 0 0 0 1.8
25-11-2019 15.8 (12:10) 8.4 (00:00) 12.1 8.61 (00:30) 4.44 (00:30) 0 0 0 0 0
24-11-2019 14 (23:20) 8 (00:00) 11 14.17 (18:00) 8.33 (22:50) 4 2.6 0.6 0.2 0.6
23-11-2019 13.5 (00:00) 8.4 (00:00) 10.9 20.28 (06:00) 9.72 (04:50) 31.8 12.4 13.4 5.6 0.4
22-11-2019 17.1 (16:00) 10.8 (00:00) 14 23.61 (08:50) 11.39 (08:30) 1.4 0 0 1.4 0
21-11-2019 15.2 (14:30) 5.3 (00:00) 10.3 13.33 (00:10) 7.22 (02:20) 0 0 0 0 0
20-11-2019 13.2 (12:10) 6.3 (00:00) 9.8 14.44 (13:00) 8.89 (23:10) 0 0 0 0 0
19-11-2019 12.4 (15:10) 0.9 (00:00) 6.6 6.11 (14:30) 3.33 (14:30) 0 0 0 0 0
18-11-2019 10 (15:20) 5.8 (00:00) 7.9 10 (01:50) 4.44 (01:50) 9.4 2 6.8 0 0.6
17-11-2019 12.4 (16:10) 6.4 (00:00) 9.4 13.89 (19:40) 7.22 (19:20) 32.4 4.4 4.4 0.2 23.4
16-11-2019 11.1 (13:40) 1.4 (00:00) 6.3 13.06 (11:10) 5.83 (11:30) 4.6 0.2 2.2 2 0.2
15-11-2019 8.5 (08:20) 1.9 (00:00) 5.2 15 (08:50) 7.5 (08:20) 63.6 14.6 12.2 22 14.8
14-11-2019 12.3 (13:30) 4.1 (00:00) 8.2 14.44 (04:50) 5.83 (00:10) 19.6 13 0 3.8 2.8
13-11-2019 12.2 (14:20) 8.2 (00:00) 10.2 8.06 (23:59) 4.17 (23:20) 27.2 15 8.2 1 3
12-11-2019 13.8 (13:20) 7.7 (00:00) 10.8 7.22 (20:40) 4.44 (20:20) 5.6 1.6 0 0.8 3.2
11-11-2019 12.3 (10:50) 6.9 (03:30) 9.6 16.11 (12:00) 9.17 (12:00) 10 0.2 5.6 1.6 2.6
10-11-2019 10.1 (15:20) 5.1 (00:00) 7.6 15.28 (13:30) 7.22 (13:30) 59.6 14.8 27.8 8.8 8.2
09-11-2019 12.9 (15:10) 6.8 (00:00) 9.8 16.94 (20:10) 7.78 (20:10) 31.6 3.2 1.2 3.8 23.4
08-11-2019 10 (20:00) 6.5 (00:00) 8.3 17.22 (11:20) 7.5 (11:10) 50.6 3.6 10.8 33 3.2
07-11-2019 12.2 (00:50) 6.7 (00:00) 9.4 13.06 (22:50) 7.5 (14:20) 2.6 1.8 0.2 0.4 0.2
06-11-2019 15.7 (15:10) 9.1 (00:00) 12.4 8.06 (01:10) 4.17 (01:10) 13.6 6.8 0.2 0 6.6

Gráficas

Temp. máximas Temp. mínimas Temp. medias Precipitaciones Rachas de viento máximas Velocidades máximas media en intervalos de 10 minutos

Datos horarios

Fecha y hora oficial Temperatura (ºC) Velocidad del viento (km/h) Dirección del viento Racha (km/h) Dirección de racha Precipitación (mm) Presión (hPa) Tendencia (hPa) Humedad (%)
2019-12-05 23:00:00 5.5 3 Sur 7 Norte 0 -- -- 98
2019-12-05 22:00:00 7 0 Calma 6 Norte 0 -- -- 98
2019-12-05 21:00:00 8.6 0 Calma 6 Nordeste 0 -- -- 97
2019-12-05 20:00:00 10 2 Oeste 7 Norte 0 -- -- 93
2019-12-05 19:00:00 10.2 0 Calma 8 Noroeste 0 -- -- 92
2019-12-05 18:00:00 10.4 4 Noroeste 7 Norte 0 -- -- 93
2019-12-05 17:00:00 10.8 4 Norte 9 Norte 0 -- -- 91
2019-12-05 16:00:00 10.9 0 Calma 7 Norte 0 -- -- 92
2019-12-05 15:00:00 10.5 0 Calma 4 Este 0 -- -- 94
2019-12-05 14:00:00 10.3 3 Sudeste 6 Sudeste 0 -- -- 94
2019-12-05 13:00:00 9.7 2 Noroeste 6 Nordeste 0 -- -- 97
2019-12-05 12:00:00 9.3 0 Calma 4 Norte 0 -- -- 99
2019-12-05 11:00:00 8.9 2 Este 4 Este 0 -- -- 99
2019-12-05 10:00:00 8.5 0 Calma 5 Sudoeste 0 -- -- 99
2019-12-05 09:00:00 8.3 2 Oeste 6 Nordeste 0 -- -- 99
2019-12-05 08:00:00 8.5 0 Calma 4 Norte 0 -- -- 97
2019-12-05 07:00:00 8.7 0 Calma 9 Noroeste 0 -- -- 97
2019-12-05 06:00:00 8.7 4 Noroeste 9 Noroeste 0 -- -- 100
2019-12-05 05:00:00 8 2 Sudeste 5 Sudoeste 0.2 -- -- 99
2019-12-05 04:00:00 8.1 2 Sudoeste 6 Este 0 -- -- 99
2019-12-05 03:00:00 8.2 4 Este 5 Este 0 -- -- 98
2019-12-05 02:00:00 8.5 0 Calma 6 Este 0.2 -- -- 97
2019-12-05 01:00:00 8.5 2 Sur 24 Noroeste 0.6 -- -- 96
2019-12-05 00:00:00 8.1 5 Norte 12 Noroeste 0.6 -- -- 98
2019-12-04 23:00:00 8.1 0 Calma 6 Sudeste 0 -- -- 96
2019-12-04 22:00:00 7.9 2 Sudoeste 6 Sur 0 -- -- 94
2019-12-04 21:00:00 8 2 Sudoeste 6 Noroeste 0 -- -- 91
2019-12-04 20:00:00 8.3 3 Sudoeste 8 Este 0 -- -- 91
2019-12-04 19:00:00 8.3 3 Sur 8 Sudeste 0 -- -- 89
2019-12-04 18:00:00 9.3 3 Sudoeste 5 Sudoeste 0 -- -- 85
2019-12-04 17:00:00 9.9 2 Norte 14 Norte 0 -- -- 81
2019-12-04 16:00:00 10.3 9 Norte 17 Oeste 0 -- -- 76
2019-12-04 15:00:00 11.7 7 Noroeste 15 Noroeste 0 -- -- 60
2019-12-04 14:00:00 11.8 3 Este 6 Norte 0 -- -- 62
2019-12-04 13:00:00 10.7 3 Noroeste 7 Nordeste 0 -- -- 67
2019-12-04 12:00:00 8.6 4 Norte 6 Norte 0 -- -- 75
2019-12-04 11:00:00 6.5 2 Nordeste 5 Este 0 -- -- 84
2019-12-04 10:00:00 4.1 3 Sudoeste 8 Nordeste 0 -- -- 92
2019-12-04 09:00:00 3.2 0 Calma 6 Nordeste 0 -- -- 91
2019-12-04 08:00:00 4.2 4 Sudoeste 15 Noroeste 0 -- -- 85
2019-12-04 07:00:00 4.7 6 Sur 15 Noroeste 0 -- -- 81
2019-12-04 06:00:00 6.5 5 Nordeste 21 Sudeste 0 -- -- 74
2019-12-04 05:00:00 4.9 7 Sudeste 19 Sudeste 0 -- -- 80
2019-12-04 04:00:00 0.9 11 Sudeste 17 Sudeste 0 -- -- 100
2019-12-04 03:00:00 -0.2 4 Este 13 Noroeste 0 -- -- 99
2019-12-04 02:00:00 0.2 3 Sudoeste 8 Sudoeste 0 -- -- 99
2019-12-04 01:00:00 0.6 0 Calma 6 Oeste 0 -- -- 98
2019-12-04 00:00:00 0.8 0 Calma 5 Sudeste 0 -- -- 99
2019-12-03 23:00:00 0.8 4 Oeste 6 Oeste 0 -- -- 98
2019-12-03 22:00:00 1.2 4 Oeste 6 Nordeste 0 -- -- 96
2019-12-03 21:00:00 1.6 3 Sudoeste 6 Sudoeste 0 -- -- 94
2019-12-03 20:00:00 2.5 0 Calma 4 Sudoeste 0 -- -- 91
2019-12-03 19:00:00 3.5 3 Sudeste 6 Sudoeste 0 -- -- 90
2019-12-03 18:00:00 5.1 4 Sudoeste 6 Oeste 0 -- -- 84
2019-12-03 17:00:00 7.2 2 Sudoeste 11 Norte 0 -- -- 77
2019-12-03 16:00:00 8.1 7 Norte 18 Norte 0 -- -- 72
2019-12-03 15:00:00 9.4 7 Oeste 14 Norte 0 -- -- 69
2019-12-03 14:00:00 8.7 10 Norte 17 Norte 0 -- -- 75
2019-12-03 13:00:00 8.3 8 Norte 15 Nordeste 0 -- -- 74
2019-12-03 12:00:00 7.6 9 Norte 18 Norte 0 -- -- 75
2019-12-03 11:00:00 6.7 0 Calma 4 Norte 0 -- -- 89
2019-12-03 10:00:00 5.2 2 Noroeste 4 Noroeste 0 -- -- 95
2019-12-03 09:00:00 4.7 0 Calma 6 Noroeste 0 -- -- 93
2019-12-03 08:00:00 5.6 2 Noroeste 6 Nordeste 0 -- -- 90
2019-12-03 07:00:00 6.1 0 Calma 6 Norte 0 -- -- 87
2019-12-03 06:00:00 6.5 4 Noroeste 8 Oeste 0 -- -- 85
2019-12-03 05:00:00 6.6 5 Noroeste 12 Norte 0 -- -- 84
2019-12-03 04:00:00 6.8 9 Norte 15 Norte 0 -- -- 85
2019-12-03 03:00:00 6.8 9 Norte 17 Norte 0 -- -- 86
2019-12-03 02:00:00 6.9 9 Norte 17 Norte 0 -- -- 86
2019-12-03 01:00:00 6.8 6 Noroeste 9 Norte 0 -- -- 89
2019-12-03 00:00:00 7 5 Norte 12 Noroeste 0 -- -- 89
2019-12-02 23:00:00 7.3 5 Noroeste 16 Noroeste 0 -- -- 84
2019-12-02 22:00:00 7.1 10 Noroeste 15 Noroeste 0 -- -- 87
2019-12-02 21:00:00 7.3 6 Norte 13 Noroeste 0 -- -- 85
2019-12-02 20:00:00 7.1 8 Noroeste 13 Noroeste 0 -- -- 84
2019-12-02 19:00:00 7.2 6 Noroeste 11 Norte 0 -- -- 83
2019-12-02 18:00:00 7.2 8 Norte 22 Norte 0 -- -- 82
2019-12-02 17:00:00 7.8 13 Norte 22 Norte 0 -- -- 80
2019-12-02 16:00:00 8 9 Norte 22 Nordeste 0 -- -- 85
2019-12-02 15:00:00 8.2 12 Nordeste 27 Nordeste 0 -- -- 85
2019-12-02 14:00:00 8.4 15 Nordeste 33 Norte 0 -- -- 88
2019-12-02 13:00:00 9.2 10 Nordeste 25 Norte 0 -- -- 87
2019-12-02 12:00:00 9.4 11 Norte 24 Norte 0.2 -- -- 87
2019-12-02 11:00:00 9.6 14 Norte 30 Nordeste 0 -- -- 87
2019-12-02 10:00:00 9.6 15 Norte 29 Nordeste 0 -- -- 87
2019-12-02 09:00:00 9 9 Norte 18 Norte 0.2 -- -- 96
2019-12-02 08:00:00 8 0 Calma 6 Sudoeste 2.2 -- -- 99
2019-12-02 07:00:00 7.5 0 Calma 12 Noroeste 1.8 -- -- 99
2019-12-02 06:00:00 7.4 5 Oeste 7 Nordeste 0.6 -- -- 99
2019-12-02 05:00:00 7.2 2 Nordeste 7 Nordeste 0.8 -- -- 99
2019-12-02 04:00:00 7.2 5 Este 12 Este 2.6 -- -- 98
2019-12-02 03:00:00 7.1 0 Calma 7 Sudoeste 0.6 -- -- 98
2019-12-02 02:00:00 7.2 3 Sudoeste 4 Sudoeste 0.2 -- -- 97
2019-12-02 01:00:00 7.4 0 Calma 11 Sudeste 1.4 -- -- 96
2019-12-02 00:00:00 7.5 3 Sur 14 Este 5.6 -- -- 95
2019-12-01 23:00:00 8.1 4 Sur 6 Sudeste 4 -- -- 97
2019-12-01 22:00:00 8.4 4 Oeste 7 Oeste 4 -- -- 98
2019-12-01 21:00:00 8.5 2 Sur 5 Sudoeste 6.6 -- -- 97
2019-12-01 20:00:00 8.9 0 Calma 7 Oeste 0.6 -- -- 92
2019-12-01 19:00:00 9 4 Nordeste 10 Oeste 0 -- -- 92
2019-12-01 18:00:00 9.6 6 Oeste 33 Noroeste 5.8 -- -- 91
2019-12-01 17:00:00 11.4 2 Sudoeste 3 Nordeste 0 -- -- 88
2019-12-01 16:00:00 11.3 2 Sudeste 20 Noroeste 0.4 -- -- 86
2019-12-01 15:00:00 12.7 6 Nordeste 15 Norte 0 -- -- 77
2019-12-01 14:00:00 12.6 8 Noroeste 14 Noroeste 0 -- -- 71
2019-12-01 13:00:00 12.8 3 Norte 9 Noroeste 0 -- -- 65
2019-12-01 12:00:00 12.9 0 Calma 6 Este 0 -- -- 68
2019-12-01 11:00:00 11.8 2 Sur 25 Sudeste 0 -- -- 70
2019-12-01 10:00:00 11.1 12 Sudeste 26 Sudeste 0 -- -- 71
2019-12-01 09:00:00 10.5 10 Este 23 Sudeste 0 -- -- 75
2019-12-01 08:00:00 10.6 14 Sudeste 27 Sudeste 0 -- -- 74
2019-12-01 07:00:00 10.3 5 Sudeste 32 Sudoeste 0 -- -- 76
2019-12-01 06:00:00 10.3 6 Sudeste 17 Sudoeste 0 -- -- 74
2019-12-01 05:00:00 9.8 4 Sur 28 Sudeste 0 -- -- 73
2019-12-01 04:00:00 9.9 17 Sudeste 30 Sudeste 0 -- -- 71
2019-12-01 03:00:00 6.9 5 Norte 16 Sudeste 0 -- -- 86
2019-12-01 02:00:00 3.8 4 Oeste 11 Noroeste 0 -- -- 100
2019-12-01 01:00:00 3.9 2 Noroeste 10 Oeste 0 -- -- 100
2019-12-01 00:00:00 4.2 0 Calma 4 Norte 0 -- -- 99
2019-11-30 23:00:00 5 3 Norte 5 Noroeste 0 -- -- 99
2019-11-30 22:00:00 5.9 2 Noroeste 5 Noroeste 0 -- -- 97
2019-11-30 21:00:00 7.2 0 Calma 6 Norte 0 -- -- 97
2019-11-30 20:00:00 8.7 3 Sur 6 Sudeste 0.4 -- -- 96
2019-11-30 19:00:00 9.4 3 Noroeste 6 Noroeste 0 -- -- 96
2019-11-30 18:00:00 10.2 3 Sudoeste 9 Norte 0 -- -- 94
2019-11-30 17:00:00 11.1 3 Sudoeste 12 Sudeste 0 -- -- 90
2019-11-30 16:00:00 11 4 Sur 20 Sudeste 0.2 -- -- 93
2019-11-30 15:00:00 10.9 3 Norte 13 Sudeste 1.4 -- -- 95
2019-11-30 14:00:00 10.7 4 Sudeste 12 Sudeste 1.8 -- -- 95
2019-11-30 13:00:00 10.7 8 Sudeste 13 Sur 3.6 -- -- 96
2019-11-30 12:00:00 10.7 11 Sur 18 Sur 5.6 -- -- 96
2019-11-30 11:00:00 11.1 4 Este 24 Norte 0.6 -- -- 93
2019-11-30 10:00:00 11.9 15 Norte 40 Noroeste 3.4 -- -- 92
2019-11-30 09:00:00 14.7 22 Noroeste 45 Sur 0.8 -- -- 79
2019-11-30 08:00:00 17.4 31 Sur 63 Sur 0 -- -- 67
2019-11-30 07:00:00 17.3 32 Sur 64 Sudoeste 0 -- -- 67
2019-11-30 06:00:00 16.9 28 Sur 54 Sur 0 -- -- 69
2019-11-30 05:00:00 16.7 25 Sudoeste 56 Sudoeste 0 -- -- 69
2019-11-30 04:00:00 16.7 32 Sudoeste 59 Sudoeste 0 -- -- 67
2019-11-30 03:00:00 16.3 33 Sudoeste 59 Sudoeste 0 -- -- 65
2019-11-30 02:00:00 15.7 24 Sudoeste 48 Sudoeste 0 -- -- 66
2019-11-30 01:00:00 14.1 10 Sudeste 33 Sudeste 0 -- -- 69
2019-11-30 00:00:00 11.9 14 Sudeste 28 Sudeste 0 -- -- 77
2019-11-29 23:00:00 7.9 4 Noroeste 8 Noroeste 0 -- -- 100
2019-11-29 22:00:00 7.6 0 Calma 5 Noroeste 0 -- -- 97
2019-11-29 21:00:00 8.4 2 Noroeste 6 Norte 0 -- -- 96
2019-11-29 20:00:00 9.3 2 Sur 6 Noroeste 0 -- -- 93
2019-11-29 19:00:00 10.3 2 Sudeste 4 Sudeste 0 -- -- 91
2019-11-29 18:00:00 12.4 3 Sudoeste 5 Sudoeste 0 -- -- 84
2019-11-29 17:00:00 14.3 3 Oeste 17 Norte 0 -- -- 79
2019-11-29 16:00:00 15.5 9 Norte 14 Norte 0 -- -- 71
2019-11-29 15:00:00 16 6 Norte 11 Norte 0 -- -- 70
2019-11-29 14:00:00 16.7 3 Oeste 6 Oeste 0 -- -- 68
2019-11-29 13:00:00 15.3 3 Noroeste 5 Noroeste 0 -- -- 72
2019-11-29 12:00:00 13.5 4 Norte 5 Norte 0 -- -- 93
2019-11-29 11:00:00 11.7 0 Calma 3 Norte 0 -- -- 100
2019-11-29 10:00:00 10.7 0 Calma 4 Norte 0 -- -- 100
2019-11-29 09:00:00 10.6 4 Norte 6 Noroeste 0 -- -- 99
2019-11-29 08:00:00 11.3 0 Calma 6 Este 0 -- -- 100
2019-11-29 07:00:00 11.4 2 Nordeste 6 Norte 0.2 -- -- 100
2019-11-29 06:00:00 11.3 4 Nordeste 6 Nordeste 0 -- -- 100
2019-11-29 05:00:00 11.4 0 Calma 6 Noroeste 0 -- -- 100
2019-11-29 04:00:00 11.3 4 Noroeste 8 Noroeste 0 -- -- 100
2019-11-29 03:00:00 11.3 2 Sudeste 6 Noroeste 0.4 -- -- 99
2019-11-29 02:00:00 11.4 0 Calma 4 Este 1 -- -- 99
2019-11-29 01:00:00 11.5 0 Calma 5 Norte 1 -- -- 99
2019-11-29 00:00:00 11.7 5 Norte 15 Noroeste 0.6 -- -- 97
2019-11-28 23:00:00 11.9 4 Norte 13 Noroeste 0.2 -- -- 95
2019-11-28 22:00:00 11.5 2 Oeste 10 Sudoeste 0.2 -- -- 94
2019-11-28 21:00:00 11.1 6 Noroeste 11 Norte 0 -- -- 95
2019-11-28 20:00:00 11.3 5 Noroeste 13 Noroeste 0 -- -- 93
2019-11-28 19:00:00 10.8 3 Este 14 Sudoeste 0.2 -- -- 92
2019-11-28 18:00:00 10.4 4 Sur 9 Sur 0.4 -- -- 96
2019-11-28 17:00:00 11.1 3 Sur 5 Oeste 1.8 -- -- 96
2019-11-28 16:00:00 11.6 0 Calma 7 Sudeste 1.8 -- -- 95
2019-11-28 15:00:00 11.7 2 Sudeste 5 Norte 0.2 -- -- 93
2019-11-28 14:00:00 11.1 6 Nordeste 12 Norte 0 -- -- 95
2019-11-28 13:00:00 10.4 3 Sudoeste 6 Noroeste 0 -- -- 95
2019-11-28 12:00:00 10 3 Sudeste 4 Sudeste 0 -- -- 95
2019-11-28 11:00:00 8.7 0 Calma 4 Este 0 -- -- 97
2019-11-28 10:00:00 7.3 3 Noroeste 5 Noroeste 0 -- -- 99
2019-11-28 09:00:00 7 2 Nordeste 5 Este 0 -- -- 98
2019-11-28 08:00:00 6.5 2 Sudeste 6 Noroeste 0 -- -- 96
2019-11-28 07:00:00 7 2 Sudeste 8 Noroeste 0 -- -- 97
2019-11-28 06:00:00 6.9 4 Sudoeste 8 Norte 0 -- -- 96
2019-11-28 05:00:00 7.5 4 Oeste 12 Noroeste 0 -- -- 96
2019-11-28 04:00:00 7 5 Sudeste 10 Noroeste 0 -- -- 96
2019-11-28 03:00:00 7.2 5 Noroeste 10 Noroeste 0 -- -- 97
2019-11-28 02:00:00 7.4 5 Noroeste 9 Noroeste 0 -- -- 95
2019-11-28 01:00:00 7.7 4 Oeste 7 Sudoeste 0 -- -- 95
2019-11-28 00:00:00 8.2 3 Sudeste 7 Norte 0 -- -- 93
2019-11-27 23:00:00 9.3 3 Nordeste 9 Noroeste 0 -- -- 89
2019-11-27 22:00:00 9.5 7 Noroeste 11 Norte 0 -- -- 94
2019-11-27 21:00:00 9.9 8 Noroeste 12 Noroeste 0 -- -- 94
2019-11-27 20:00:00 10.5 4 Noroeste 11 Noroeste 0 -- -- 90
2019-11-27 19:00:00 11.1 0 Calma 14 Noroeste 0 -- -- 86
2019-11-27 18:00:00 11.3 5 Este 12 Sudeste 0 -- -- 85
2019-11-27 17:00:00 11.7 7 Sur 16 Sur 0 -- -- 83
2019-11-27 16:00:00 13.2 2 Sur 29 Sudoeste 0.4 -- -- 77
2019-11-27 15:00:00 15.3 24 Sudoeste 48 Sudoeste 0 -- -- 61
2019-11-27 14:00:00 15.2 22 Sudoeste 40 Sudoeste 0 -- -- 60
2019-11-27 06:00:00 12.2 8 Sudoeste 20 Sudoeste 0 -- -- 63
2019-11-27 05:00:00 10.9 3 Norte 9 Nordeste 0 -- -- 68
2019-11-27 04:00:00 11.9 6 Norte 23 Oeste 0 -- -- 62
2019-11-27 03:00:00 12.2 7 Sudeste 20 Oeste 0 -- -- 63
2019-11-27 02:00:00 11.1 8 Noroeste 23 Sudoeste 0 -- -- 81
2019-11-27 01:00:00 11.4 10 Norte 42 Sudoeste 0 -- -- 83
2019-11-27 00:00:00 13.3 16 Sudoeste 38 Sur 0 -- -- 61
2019-11-26 23:00:00 11.2 3 Oeste 11 Noroeste 0 -- -- 94
2019-11-26 22:00:00 11.8 3 Oeste 17 Norte 0 -- -- 92
2019-11-26 21:00:00 13.8 6 Sudeste 45 Sur 1.8 -- -- 86
2019-11-26 20:00:00 18.3 23 Sur 48 Sur 0 -- -- 55
2019-11-26 19:00:00 19.7 30 Sudoeste 59 Sudoeste 0 -- -- 44
2019-11-26 18:00:00 19.4 21 Sur 53 Sur 0 -- -- 50
2019-11-26 17:00:00 19.2 23 Sur 47 Sur 0 -- -- 59
2019-11-26 16:00:00 20 20 Sudoeste 48 Sur 0 -- -- 54
2019-11-26 15:00:00 19.3 22 Sur 52 Sur 0 -- -- 57
2019-11-26 14:00:00 19.3 26 Sudoeste 57 Sudoeste 0 -- -- 55
2019-11-26 13:00:00 18.5 19 Sur 49 Sur 0 -- -- 63
2019-11-26 12:00:00 17.9 20 Sur 48 Sudoeste 0 -- -- 67
2019-11-26 11:00:00 17.2 23 Sur 57 Sur 0 -- -- 67
2019-11-26 10:00:00 16.9 30 Sudoeste 67 Sudoeste 0 -- -- 66
2019-11-26 09:00:00 15.7 23 Sudoeste 57 Sudoeste 0 -- -- 68
2019-11-26 08:00:00 15.9 11 Sur 42 Sudoeste 0 -- -- 65
2019-11-26 07:00:00 16.2 17 Sur 54 Sur 0 -- -- 64
2019-11-26 06:00:00 15.5 17 Sur 52 Sur 0 -- -- 66
2019-11-26 05:00:00 15.7 19 Sur 53 Sur 0 -- -- 61
2019-11-26 04:00:00 15.1 19 Este 45 Este 0 -- -- 65
2019-11-26 03:00:00 15 14 Sudeste 37 Este 0 -- -- 64
2019-11-26 02:00:00 14.7 18 Sudeste 42 Sudeste 0 -- -- 65
2019-11-26 01:00:00 13.4 7 Sudeste 27 Sudeste 0 -- -- 71
2019-11-26 00:00:00 10.8 8 Norte 13 Noroeste 0 -- -- 87
2019-11-25 23:00:00 8.8 3 Nordeste 6 Oeste 0 -- -- 97
2019-11-25 22:00:00 10 0 Calma 5 Sudoeste 0 -- -- 94
2019-11-25 21:00:00 11.2 3 Sur 4 Este 0 -- -- 93
2019-11-25 20:00:00 12.7 0 Calma 4 Sudoeste 0 -- -- 90
2019-11-25 19:00:00 13.2 0 Calma 7 Nordeste 0 -- -- 87
2019-11-25 18:00:00 13.4 4 Nordeste 13 Nordeste 0 -- -- 87
2019-11-25 17:00:00 13.7 6 Nordeste 13 Nordeste 0 -- -- 85
2019-11-25 16:00:00 14.1 8 Norte 18 Norte 0 -- -- 83
2019-11-25 15:00:00 14.7 11 Norte 19 Nordeste 0 -- -- 83
2019-11-25 14:00:00 15.7 9 Norte 21 Norte 0 -- -- 78
2019-11-25 13:00:00 15.5 11 Norte 22 Nordeste 0 -- -- 81
2019-11-25 12:00:00 15.7 10 Norte 15 Norte 0 -- -- 74
2019-11-25 11:00:00 14.8 5 Noroeste 10 Norte 0 -- -- 78
2019-11-25 10:00:00 11.8 3 Noroeste 8 Norte 0 -- -- 91
2019-11-25 09:00:00 9.9 0 Calma 12 Noroeste 0 -- -- 91
2019-11-25 08:00:00 10.4 5 Sudoeste 10 Norte 0 -- -- 90
2019-11-25 07:00:00 11.4 6 Norte 12 Noroeste 0 -- -- 87
2019-11-25 06:00:00 13 10 Oeste 19 Noroeste 0 -- -- 82
2019-11-25 05:00:00 14.4 4 Oeste 16 Oeste 0 -- -- 66
2019-11-25 04:00:00 13.9 6 Sur 24 Sudeste 0 -- -- 68
2019-11-25 03:00:00 13.5 6 Sur 29 Este 0 -- -- 70
2019-11-25 02:00:00 13.3 7 Sudoeste 24 Sudeste 0 -- -- 71
2019-11-25 01:00:00 13.6 9 Sudeste 31 Este 0 -- -- 68
2019-11-25 00:00:00 13.7 8 Nordeste 51 Sudoeste 0 -- -- 66
2019-11-24 23:00:00 13.9 28 Sudoeste 48 Sudoeste 0 -- -- 65
2019-11-24 22:00:00 13.3 12 Sur 39 Sudoeste 0 -- -- 66
2019-11-24 21:00:00 11.9 26 Sudeste 49 Sudeste 0.6 -- -- 75
2019-11-24 20:00:00 12.4 15 Sudeste 41 Este 0 -- -- 67
2019-11-24 19:00:00 12.3 13 Sudeste 33 Este 0 -- -- 65
2019-11-24 18:00:00 12.6 15 Sudeste 51 Sur 0.2 -- -- 61
2019-11-24 17:00:00 12.8 12 Sudeste 26 Este 0 -- -- 61
2019-11-24 16:00:00 12.5 10 Sudeste 28 Sudeste 0 -- -- 63
2019-11-24 15:00:00 12.9 15 Sudeste 28 Sudeste 0 -- -- 62
2019-11-24 14:00:00 12.7 10 Sudeste 23 Sur 0 -- -- 62
2019-11-24 13:00:00 12.2 6 Sur 20 Sudeste 0 -- -- 68
2019-11-24 12:00:00 11 0 Calma 6 Noroeste 0 -- -- 88
2019-11-24 11:00:00 9.2 3 Noroeste 8 Oeste 0 -- -- 93
2019-11-24 10:00:00 8.3 4 Oeste 9 Noroeste 0 -- -- 96
2019-11-24 09:00:00 8 3 Sudoeste 8 Oeste 0 -- -- 97
2019-11-24 08:00:00 8.4 3 Sur 9 Este 0.2 -- -- 94
2019-11-24 07:00:00 8.4 3 Sur 10 Sudeste 0.4 -- -- 93
2019-11-24 06:00:00 8.6 6 Sudeste 17 Sudeste 0.4 -- -- 91
2019-11-24 05:00:00 8.5 2 Norte 12 Este 0 -- -- 90
2019-11-24 04:00:00 8.9 2 Sudoeste 19 Noroeste 1 -- -- 86
2019-11-24 03:00:00 9.4 5 Norte 31 Oeste 0.2 -- -- 81
2019-11-24 02:00:00 9.5 4 Noroeste 28 Oeste 0.2 -- -- 81
2019-11-24 01:00:00 9.2 4 Norte 30 Noroeste 0.8 -- -- 85
2019-11-24 00:00:00 9.5 6 Norte 30 Noroeste 0 -- -- 78
2019-11-23 23:00:00 9.8 13 Noroeste 33 Noroeste 0.4 -- -- 78
2019-11-23 22:00:00 10 8 Noroeste 23 Norte 0 -- -- 74
2019-11-23 21:00:00 9.8 7 Noroeste 44 Noroeste 0 -- -- 72
2019-11-23 20:00:00 10.3 12 Noroeste 40 Noroeste 0 -- -- 72
2019-11-23 19:00:00 9.9 8 Noroeste 42 Oeste 0 -- -- 76
2019-11-23 18:00:00 9.9 10 Noroeste 35 Oeste 0.4 -- -- 77
2019-11-23 17:00:00 9.7 21 Oeste 50 Noroeste 0.2 -- -- 79
2019-11-23 16:00:00 10.1 11 Noroeste 47 Oeste 0.2 -- -- 81
2019-11-23 15:00:00 10.5 15 Oeste 33 Oeste 0.4 -- -- 80
2019-11-23 14:00:00 11.4 18 Oeste 33 Oeste 1.2 -- -- 74
2019-11-23 13:00:00 9.5 10 Noroeste 41 Noroeste 3.2 -- -- 88
2019-11-23 12:00:00 9.6 24 Noroeste 47 Noroeste 0.2 -- -- 82
2019-11-23 11:00:00 9.2 16 Noroeste 40 Noroeste 1.6 -- -- 86
2019-11-23 10:00:00 8.4 20 Noroeste 53 Oeste 3 -- -- 85
2019-11-23 09:00:00 9.1 23 Noroeste 54 Noroeste 0.6 -- -- 83
2019-11-23 08:00:00 8.8 27 Noroeste 68 Noroeste 3.8 -- -- 88
2019-11-23 07:00:00 9.2 24 Noroeste 64 Noroeste 4.2 -- -- 90
2019-11-23 06:00:00 10.2 25 Noroeste 73 Oeste 6 -- -- 87
2019-11-23 05:00:00 10.4 31 Noroeste 70 Oeste 3.4 -- -- 87
2019-11-23 04:00:00 10.7 22 Oeste 46 Oeste 1.8 -- -- 80
2019-11-23 03:00:00 10.1 6 Sudoeste 12 Sudoeste 1.2 -- -- 88
2019-11-23 02:00:00 12.1 6 Oeste 23 Sudoeste 0 -- -- 74
2019-11-23 01:00:00 13.4 9 Sudoeste 37 Sudoeste 0 -- -- 60
2019-11-23 00:00:00 13.5 24 Sur 46 Sudoeste 0 -- -- 60
2019-11-22 23:00:00 13.3 21 Sur 50 Sudoeste 0 -- -- 62
2019-11-22 22:00:00 13.3 26 Sur 55 Sur 0 -- -- 59
2019-11-22 21:00:00 13 28 Sur 57 Sur 0 -- -- 63
2019-11-22 20:00:00 13.5 22 Sur 47 Sudeste 0 -- -- 64
2019-11-22 19:00:00 13.5 18 Sur 33 Sur 0 -- -- 63
2019-11-22 18:00:00 11.5 5 Oeste 21 Oeste 0 -- -- 91
2019-11-22 17:00:00 13 10 Oeste 50 Sur 1.4 -- -- 81
2019-11-22 16:00:00 17.1 22 Sur 57 Sur 0 -- -- 61
2019-11-22 15:00:00 16 36 Sur 66 Sur 0 -- -- 63
2019-11-22 14:00:00 14.7 30 Sur 65 Sudeste 0 -- -- 68
2019-11-22 13:00:00 14.2 26 Sur 60 Sur 0 -- -- 69
2019-11-22 12:00:00 13.6 31 Sur 69 Sur 0 -- -- 66
2019-11-22 11:00:00 13.3 23 Sur 63 Sur 0 -- -- 64
2019-11-22 10:00:00 12.2 33 Sur 72 Sur 0 -- -- 63
2019-11-22 09:00:00 12.7 32 Sur 85 Sur 0 -- -- 62
2019-11-22 08:00:00 12.4 21 Sur 58 Sudoeste 0 -- -- 64
2019-11-22 07:00:00 12.4 27 Sur 57 Sur 0 -- -- 62
2019-11-22 06:00:00 12.5 20 Sur 52 Sudeste 0 -- -- 62
2019-11-22 05:00:00 12 26 Sudoeste 52 Sudoeste 0 -- -- 64
2019-11-22 04:00:00 11.6 21 Sudoeste 44 Sudoeste 0 -- -- 65
2019-11-22 03:00:00 11.3 12 Sur 35 Sur 0 -- -- 64
2019-11-22 02:00:00 11.1 21 Sur 43 Sur 0 -- -- 61
2019-11-22 01:00:00 11 18 Sur 40 Sur 0 -- -- 62
2019-11-22 00:00:00 11.3 16 Sur 32 Sur 0 -- -- 60
2019-11-21 23:00:00 10.8 12 Sur 23 Sur 0 -- -- 61
2019-11-21 22:00:00 7.3 8 Sur 14 Sudoeste 0 -- -- 78
2019-11-21 21:00:00 5.3 3 Oeste 5 Sudoeste 0 -- -- 90
2019-11-21 20:00:00 6.2 2 Oeste 6 Nordeste 0 -- -- 86
2019-11-21 19:00:00 7.7 0 Calma 6 Sudeste 0 -- -- 82
2019-11-21 18:00:00 10.3 2 Sudoeste 8 Nordeste 0 -- -- 72
2019-11-21 17:00:00 12.1 3 Sudoeste 18 Norte 0 -- -- 64
2019-11-21 16:00:00 12.9 9 Norte 20 Norte 0 -- -- 60
2019-11-21 15:00:00 14.6 5 Norte 10 Nordeste 0 -- -- 50
2019-11-21 14:00:00 14.7 4 Nordeste 9 Este 0 -- -- 56
2019-11-21 13:00:00 13.2 3 Nordeste 10 Noroeste 0 -- -- 62
2019-11-21 12:00:00 14.1 5 Norte 19 Sudoeste 0 -- -- 58
2019-11-21 11:00:00 13.3 9 Sudoeste 28 Sudoeste 0 -- -- 58
2019-11-21 10:00:00 11.1 8 Sur 29 Sudeste 0 -- -- 66
2019-11-21 09:00:00 10.4 16 Sudoeste 26 Sudoeste 0 -- -- 67
2019-11-21 08:00:00 10.7 13 Sur 28 Sudoeste 0 -- -- 67
2019-11-21 07:00:00 10.2 13 Sudeste 27 Sudeste 0 -- -- 67
2019-11-21 06:00:00 10.4 15 Sudeste 27 Sudeste 0 -- -- 67
2019-11-21 05:00:00 10.5 13 Sudeste 30 Sur 0 -- -- 70
2019-11-21 04:00:00 10.7 12 Sur 37 Sudoeste 0 -- -- 68
2019-11-21 03:00:00 11.3 15 Sur 44 Sudoeste 0 -- -- 65
2019-11-21 02:00:00 11.3 22 Sudoeste 42 Sudoeste 0 -- -- 65
2019-11-21 01:00:00 11.1 14 Sur 48 Sudoeste 0 -- -- 66
2019-11-21 00:00:00 11.1 18 Sur 50 Sudoeste 0 -- -- 67
2019-11-20 23:00:00 11 19 Sudoeste 39 Sudoeste 0 -- -- 67
2019-11-20 22:00:00 10.8 14 Sur 35 Sur 0 -- -- 68
2019-11-20 21:00:00 10.8 12 Sur 37 Sur 0 -- -- 69
2019-11-20 20:00:00 11.1 17 Sur 32 Sur 0 -- -- 67
2019-11-20 19:00:00 11 13 Sudeste 28 Sur 0 -- -- 65
2019-11-20 18:00:00 11.3 15 Sur 42 Sur 0 -- -- 66
2019-11-20 17:00:00 11.8 12 Sur 38 Sur 0 -- -- 66
2019-11-20 16:00:00 11.7 18 Sur 40 Sur 0 -- -- 66
2019-11-20 15:00:00 11.7 15 Sur 39 Sur 0 -- -- 68
2019-11-20 14:00:00 12 21 Sudeste 39 Sudeste 0 -- -- 64
2019-11-20 13:00:00 12.4 22 Sudeste 52 Sudeste 0 -- -- 61
2019-11-20 12:00:00 13.1 21 Sudeste 39 Sudeste 0 -- -- 63
2019-11-20 11:00:00 12.7 14 Sudeste 40 Sudeste 0 -- -- 64
2019-11-20 10:00:00 11.5 13 Sudeste 34 Sudeste 0 -- -- 68
2019-11-20 09:00:00 10.4 17 Sudeste 32 Sudeste 0 -- -- 69
2019-11-20 08:00:00 10.7 17 Sudeste 27 Sudeste 0 -- -- 68
2019-11-20 07:00:00 10.1 15 Sudeste 26 Este 0 -- -- 70
2019-11-20 06:00:00 8.3 7 Sudeste 16 Sur 0 -- -- 75
2019-11-20 05:00:00 6.6 4 Sudoeste 10 Sur 0 -- -- 81
2019-11-20 04:00:00 6.7 3 Oeste 12 Noroeste 0 -- -- 77
2019-11-20 03:00:00 7 3 Oeste 8 Sur 0 -- -- 77
2019-11-20 02:00:00 7.9 4 Oeste 10 Sur 0 -- -- 69
2019-11-20 01:00:00 6.9 4 Sudoeste 11 Sudoeste 0 -- -- 75
2019-11-20 00:00:00 8 8 Noroeste 17 Sur 0 -- -- 68
2019-11-19 23:00:00 8 5 Sudoeste 17 Sur 0 -- -- 69
2019-11-19 22:00:00 8.3 4 Sudeste 11 Sudeste 0 -- -- 69
2019-11-19 21:00:00 8.5 5 Sur 13 Sudeste 0 -- -- 69
2019-11-19 20:00:00 8.6 3 Este 9 Sudeste 0 -- -- 72
2019-11-19 19:00:00 9.1 3 Sur 10 Sudoeste 0 -- -- 73
2019-11-19 18:00:00 9.7 4 Sur 16 Sudeste 0 -- -- 71
2019-11-19 17:00:00 10.8 7 Sur 12 Sudeste 0 -- -- 69
2019-11-19 16:00:00 11.8 6 Este 16 Este 0 -- -- 63
2019-11-19 15:00:00 12.3 8 Este 22 Sudeste 0 -- -- 61
2019-11-19 14:00:00 11.8 9 Este 16 Este 0 -- -- 66
2019-11-19 13:00:00 11.8 4 Este 9 Sudeste 0 -- -- 65
2019-11-19 12:00:00 9.8 2 Norte 7 Norte 0 -- -- 85
2019-11-19 11:00:00 6.6 2 Sudeste 5 Este 0 -- -- 100
2019-11-19 10:00:00 3.5 2 Norte 4 Noroeste 0 -- -- 100
2019-11-19 09:00:00 0.9 0 Calma 9 Sudeste 0 -- -- 100
2019-11-19 08:00:00 1.1 0 Calma 6 Noroeste 0 -- -- 100
2019-11-19 07:00:00 1.4 4 Sudoeste 7 Noroeste 0 -- -- 100
2019-11-19 06:00:00 2.5 0 Calma 4 Sudoeste 0 -- -- 100
2019-11-19 05:00:00 3.6 2 Norte 5 Nordeste 0 -- -- 99
2019-11-19 04:00:00 4.8 3 Sudoeste 4 Nordeste 0 -- -- 99
2019-11-19 03:00:00 6.1 2 Oeste 4 Sudeste 0 -- -- 99
2019-11-19 02:00:00 6.1 0 Calma 7 Sudoeste 0 -- -- 99
2019-11-19 01:00:00 6.2 3 Oeste 5 Oeste 0 -- -- 99
2019-11-19 00:00:00 6.3 0 Calma 6 Noroeste 0 -- -- 99
2019-11-18 23:00:00 6.3 0 Calma 9 Nordeste 0.6 -- -- 99
2019-11-18 22:00:00 6.2 6 Sudoeste 10 Sudoeste 0 -- -- 99
2019-11-18 21:00:00 5.9 2 Nordeste 4 Oeste 0 -- -- 98
2019-11-18 20:00:00 5.9 2 Sudoeste 8 Este 0 -- -- 96
2019-11-18 19:00:00 7.3 5 Este 9 Oeste 0 -- -- 95
2019-11-18 18:00:00 8.6 4 Noroeste 8 Noroeste 0 -- -- 85
2019-11-18 17:00:00 8.9 0 Calma 7 Sudeste 0 -- -- 90
2019-11-18 16:00:00 9.3 3 Este 17 Noroeste 0 -- -- 86
2019-11-18 15:00:00 9.8 12 Noroeste 21 Oeste 0 -- -- 81
2019-11-18 14:00:00 9.8 2 Nordeste 21 Noroeste 0 -- -- 82
2019-11-18 13:00:00 9.5 8 Noroeste 12 Noroeste 0 -- -- 84
2019-11-18 12:00:00 8.4 2 Norte 8 Este 0 -- -- 90
2019-11-18 11:00:00 7.8 0 Calma 10 Sudeste 0 -- -- 96
2019-11-18 10:00:00 6.8 4 Noroeste 7 Noroeste 0 -- -- 99
2019-11-18 09:00:00 6.6 4 Sudeste 10 Este 2.6 -- -- 99
2019-11-18 08:00:00 6.5 2 Sur 10 Sudeste 1.2 -- -- 98
2019-11-18 07:00:00 6.5 4 Sur 21 Norte 3 -- -- 97
2019-11-18 06:00:00 6.7 3 Sudeste 6 Este 0 -- -- 99
2019-11-18 05:00:00 6.8 4 Norte 8 Noroeste 0 -- -- 98
2019-11-18 04:00:00 7.1 4 Oeste 12 Nordeste 0.2 -- -- 96
2019-11-18 03:00:00 7.1 2 Oeste 13 Norte 0 -- -- 94
2019-11-18 02:00:00 7.4 11 Norte 36 Norte 1.8 -- -- 92
2019-11-18 01:00:00 7.4 2 Sur 19 Oeste 0 -- -- 96
2019-11-18 00:00:00 7.2 4 Nordeste 16 Este 3.6 -- -- 98
2019-11-17 23:00:00 6.8 8 Oeste 19 Oeste 6 -- -- 98
2019-11-17 22:00:00 6.9 8 Oeste 26 Oeste 4.2 -- -- 94
2019-11-17 21:00:00 7 14 Noroeste 29 Oeste 7 -- -- 93
2019-11-17 20:00:00 7.8 14 Oeste 50 Oeste 2.4 -- -- 84
2019-11-17 19:00:00 9.5 17 Oeste 36 Oeste 0.2 -- -- 73
2019-11-17 18:00:00 10.8 13 Noroeste 31 Noroeste 0 -- -- 64
2019-11-17 17:00:00 11.7 4 Noroeste 16 Sudoeste 0 -- -- 65
2019-11-17 16:00:00 12 9 Norte 39 Noroeste 0 -- -- 68
2019-11-17 15:00:00 10.8 9 Noroeste 39 Noroeste 0 -- -- 75
2019-11-17 14:00:00 11.3 15 Noroeste 31 Oeste 0.2 -- -- 77
2019-11-17 13:00:00 11 4 Sur 17 Sudeste 0 -- -- 87
2019-11-17 12:00:00 8.9 11 Sudeste 19 Sudeste 0.6 -- -- 97
2019-11-17 11:00:00 7.6 4 Noroeste 12 Oeste 1.2 -- -- 96
2019-11-17 10:00:00 7.4 5 Noroeste 15 Sudeste 0.4 -- -- 93
2019-11-17 09:00:00 7.2 6 Sudeste 20 Sudoeste 2 -- -- 94
2019-11-17 08:00:00 7.2 6 Noroeste 11 Oeste 0.2 -- -- 95
2019-11-17 07:00:00 7 0 Calma 7 Norte 0 -- -- 98
2019-11-17 06:00:00 6.8 2 Oeste 6 Noroeste 0.8 -- -- 98
2019-11-17 05:00:00 6.6 2 Oeste 8 Sudeste 0.6 -- -- 98
2019-11-17 04:00:00 6.4 3 Noroeste 6 Norte 1.2 -- -- 97
2019-11-17 03:00:00 6.5 2 Sur 8 Sudeste 1.4 -- -- 96
2019-11-17 02:00:00 6.4 3 Noroeste 8 Oeste 0.4 -- -- 94
2019-11-17 01:00:00 6.5 2 Oeste 5 Noroeste 0 -- -- 92
2019-11-17 00:00:00 6.6 5 Oeste 8 Noroeste 0 -- -- 91
2019-11-16 23:00:00 6.7 0 Calma 8 Este 0.2 -- -- 90
2019-11-16 22:00:00 7 3 Sudeste 10 Sudeste 0 -- -- 86
2019-11-16 21:00:00 7 3 Sur 13 Noroeste 0 -- -- 86
2019-11-16 20:00:00 8.4 5 Oeste 20 Norte 0 -- -- 70
2019-11-16 19:00:00 8.6 4 Noroeste 19 Noroeste 0 -- -- 68
2019-11-16 18:00:00 8.7 4 Oeste 45 Noroeste 0 -- -- 73
2019-11-16 17:00:00 9.5 11 Oeste 32 Noroeste 0 -- -- 68
2019-11-16 16:00:00 8.7 12 Oeste 29 Oeste 0.8 -- -- 78
2019-11-16 15:00:00 9 12 Noroeste 37 Noroeste 0.4 -- -- 77
2019-11-16 14:00:00 10.6 19 Oeste 37 Oeste 0 -- -- 68
2019-11-16 13:00:00 9.4 15 Oeste 38 Oeste 0.8 -- -- 76
2019-11-16 12:00:00 8.6 17 Noroeste 47 Oeste 0.4 -- -- 82
2019-11-16 11:00:00 9.2 20 Oeste 38 Oeste 0.2 -- -- 74
2019-11-16 10:00:00 7.4 4 Nordeste 30 Oeste 1.4 -- -- 87
2019-11-16 09:00:00 5.8 7 Noroeste 23 Oeste 0 -- -- 93
2019-11-16 08:00:00 3.5 3 Sudoeste 8 Norte 0.2 -- -- 100
2019-11-16 07:00:00 2.8 4 Sudoeste 9 Oeste 0 -- -- 100
2019-11-16 06:00:00 2.5 3 Noroeste 8 Oeste 0 -- -- 100
2019-11-16 05:00:00 2.1 0 Calma 7 Noroeste 0 -- -- 100
2019-11-16 04:00:00 2.2 3 Oeste 7 Oeste 0.2 -- -- 100
2019-11-16 03:00:00 2.1 2 Nordeste 5 Sudeste 0 -- -- 100
2019-11-16 02:00:00 1.7 3 Norte 5 Norte 0 -- -- 99
2019-11-16 01:00:00 1.7 0 Calma 9 Este 0 -- -- 97
2019-11-16 00:00:00 2 6 Sudoeste 12 Sur 0.2 -- -- 98
2019-11-15 23:00:00 2.3 5 Sudeste 11 Este 3 -- -- 98
2019-11-15 22:00:00 2.3 5 Noroeste 9 Sur 0.4 -- -- 98
2019-11-15 21:00:00 2 5 Sur 14 Sudeste 3.6 -- -- 97
2019-11-15 20:00:00 2.9 2 Sudeste 10 Este 3.4 -- -- 95
2019-11-15 19:00:00 3.5 6 Sudeste 11 Sur 4.2 -- -- 94
2019-11-15 18:00:00 3.9 4 Nordeste 21 Sudeste 1.6 -- -- 96
2019-11-15 17:00:00 3.7 12 Sudeste 21 Sudeste 2 -- -- 94
2019-11-15 16:00:00 3.6 6 Sudeste 21 Sudeste 2.8 -- -- 94
2019-11-15 15:00:00 3 10 Sur 21 Sudeste 5 -- -- 95
2019-11-15 14:00:00 3.1 9 Sudeste 21 Sudeste 4.8 -- -- 94
2019-11-15 13:00:00 4.1 4 Este 21 Oeste 5.8 -- -- 95
2019-11-15 12:00:00 5.2 13 Oeste 31 Oeste 2.8 -- -- 89
2019-11-15 11:00:00 5.6 17 Oeste 36 Oeste 1.8 -- -- 88
2019-11-15 10:00:00 7.4 13 Noroeste 40 Noroeste 2.6 -- -- 90
2019-11-15 09:00:00 7.4 21 Noroeste 54 Noroeste 2.2 -- -- 84
2019-11-15 08:00:00 8 15 Noroeste 34 Noroeste 0.2 -- -- 84
2019-11-15 07:00:00 6.7 11 Noroeste 27 Noroeste 2.6 -- -- 91
2019-11-15 06:00:00 6.3 3 Noroeste 24 Oeste 2 -- -- 91
2019-11-15 05:00:00 5.9 8 Oeste 23 Noroeste 2.8 -- -- 91
2019-11-15 04:00:00 4.6 10 Sudeste 24 Sudeste 5.8 -- -- 93
2019-11-15 03:00:00 5.3 8 Este 17 Este 3.8 -- -- 96
2019-11-15 02:00:00 4.7 4 Nordeste 13 Sudeste 0.2 -- -- 96
2019-11-15 01:00:00 3.9 3 Este 7 Oeste 0 -- -- 97
2019-11-15 00:00:00 4.3 3 Oeste 6 Noroeste 0 -- -- 97
2019-11-14 23:00:00 4.5 2 Sudoeste 8 Sudeste 0.2 -- -- 95
2019-11-14 22:00:00 4.6 4 Noroeste 12 Sur 0 -- -- 95
2019-11-14 21:00:00 4.5 6 Sudeste 14 Sudeste 0.2 -- -- 93
2019-11-14 20:00:00 4.5 5 Sur 12 Sudeste 0.8 -- -- 95
2019-11-14 19:00:00 5.3 3 Sudeste 7 Sudeste 1.6 -- -- 92
2019-11-14 18:00:00 5.4 4 Norte 26 Noroeste 3.8 -- -- 92
2019-11-14 17:00:00 7.8 15 Norte 26 Norte 0 -- -- 83
2019-11-14 16:00:00 10.6 12 Oeste 22 Sudoeste 0 -- -- 58
2019-11-14 15:00:00 10.9 8 Sur 24 Sudeste 0 -- -- 55
2019-11-14 14:00:00 11.9 9 Sur 24 Sudeste 0 -- -- 52
2019-11-14 13:00:00 10.9 8 Sur 22 Sur 0 -- -- 56
2019-11-14 12:00:00 11.1 8 Este 13 Sudeste 0 -- -- 57
2019-11-14 11:00:00 9.1 3 Sudeste 7 Sur 0 -- -- 72
2019-11-14 10:00:00 5.5 3 Oeste 15 Sudeste 0 -- -- 88
2019-11-14 09:00:00 4.4 3 Sur 12 Este 0 -- -- 89
2019-11-14 08:00:00 4.5 5 Nordeste 14 Sudeste 0 -- -- 86
2019-11-14 07:00:00 5.8 10 Sudeste 37 Noroeste 0 -- -- 78
2019-11-14 06:00:00 7.5 11 Noroeste 36 Noroeste 0 -- -- 67
2019-11-14 05:00:00 6.8 14 Oeste 52 Noroeste 0.2 -- -- 77
2019-11-14 04:00:00 6.1 8 Oeste 29 Noroeste 2.4 -- -- 86
2019-11-14 03:00:00 6.9 17 Noroeste 42 Noroeste 3.6 -- -- 88
2019-11-14 02:00:00 7.5 13 Noroeste 32 Oeste 3.2 -- -- 91
2019-11-14 01:00:00 8.1 16 Noroeste 42 Noroeste 3.6 -- -- 92
2019-11-14 00:00:00 9.5 13 Noroeste 29 Noroeste 3 -- -- 91
2019-11-13 23:00:00 8.4 7 Noroeste 16 Noroeste 0 -- -- 94
2019-11-13 22:00:00 8.4 4 Noroeste 8 Noroeste 0 -- -- 96
2019-11-13 21:00:00 8.9 5 Norte 9 Oeste 0 -- -- 98
2019-11-13 20:00:00 9.5 2 Este 6 Sudeste 0 -- -- 97
2019-11-13 19:00:00 9.9 4 Sudeste 8 Sudeste 0 -- -- 96
2019-11-13 18:00:00 10.2 5 Noroeste 11 Sur 0 -- -- 94
2019-11-13 17:00:00 10.6 6 Sudeste 17 Sudeste 0 -- -- 91
2019-11-13 16:00:00 10.5 10 Sudeste 15 Sudeste 0 -- -- 93
2019-11-13 15:00:00 10.5 5 Noroeste 17 Norte 0.4 -- -- 91
2019-11-13 14:00:00 11.8 6 Este 10 Este 0.2 -- -- 90
2019-11-13 13:00:00 10.6 4 Oeste 12 Oeste 0.4 -- -- 93
2019-11-13 12:00:00 10.4 3 Norte 8 Sudeste 0.6 -- -- 96
2019-11-13 11:00:00 10.4 3 Sudoeste 17 Norte 0.4 -- -- 95
2019-11-13 10:00:00 10 8 Noroeste 14 Noroeste 0.6 -- -- 97
2019-11-13 09:00:00 9.6 0 Calma 4 Nordeste 0 -- -- 98
2019-11-13 08:00:00 9.6 5 Oeste 14 Sudoeste 1.6 -- -- 96
2019-11-13 07:00:00 9.6 4 Noroeste 22 Norte 5 -- -- 95
2019-11-13 06:00:00 9.9 6 Norte 10 Noroeste 4.8 -- -- 98
2019-11-13 05:00:00 9.9 4 Oeste 12 Norte 2.2 -- -- 96
2019-11-13 04:00:00 9.8 5 Noroeste 9 Norte 3.6 -- -- 98
2019-11-13 03:00:00 9.8 4 Noroeste 9 Norte 4.2 -- -- 96
2019-11-13 02:00:00 10.1 4 Noroeste 13 Noroeste 0.2 -- -- 94
2019-11-13 01:00:00 9.9 2 Noroeste 8 Noroeste 0 -- -- 96
2019-11-13 00:00:00 9.8 0 Calma 8 Oeste 0.6 -- -- 96
2019-11-12 23:00:00 10.2 3 Noroeste 15 Sudeste 0.8 -- -- 92
2019-11-12 22:00:00 10.8 9 Sudeste 21 Este 0.8 -- -- 85
2019-11-12 21:00:00 10.9 9 Este 26 Este 0 -- -- 80
2019-11-12 20:00:00 10.5 14 Sudeste 23 Sudeste 0.6 -- -- 81
2019-11-12 19:00:00 10.6 9 Sudeste 21 Este 0.4 -- -- 85
2019-11-12 18:00:00 11 0 Calma 3 Sudeste 0.6 -- -- 93
2019-11-12 17:00:00 11.9 2 Sudoeste 8 Noroeste 0.2 -- -- 88
2019-11-12 16:00:00 12.9 4 Noroeste 9 Este 0 -- -- 74
2019-11-12 15:00:00 13.4 6 Sudeste 14 Sudeste 0 -- -- 70
2019-11-12 14:00:00 13.6 6 Este 12 Nordeste 0 -- -- 69
2019-11-12 13:00:00 13 6 Sudeste 14 Sudeste 0 -- -- 72
2019-11-12 12:00:00 10.7 4 Sudeste 8 Sudeste 0 -- -- 81
2019-11-12 11:00:00 9.7 2 Nordeste 8 Sudeste 0 -- -- 95
2019-11-12 10:00:00 8.7 2 Norte 6 Noroeste 0 -- -- 95
2019-11-12 09:00:00 8.4 4 Oeste 9 Sudeste 0 -- -- 92
2019-11-12 08:00:00 7.8 0 Calma 8 Noroeste 0 -- -- 98
2019-11-12 07:00:00 7.7 3 Sudeste 9 Noroeste 0 -- -- 98
2019-11-12 06:00:00 7.9 2 Sudeste 10 Noroeste 0.2 -- -- 97
2019-11-12 05:00:00 7.9 3 Sudoeste 10 Sudeste 0 -- -- 97
2019-11-12 04:00:00 7.9 3 Sudeste 10 Sudeste 0.2 -- -- 97
2019-11-12 03:00:00 8 3 Sudoeste 8 Sur 0 -- -- 96
2019-11-12 02:00:00 8 5 Sudeste 9 Sudeste 0 -- -- 98
2019-11-12 01:00:00 8.1 5 Este 11 Sudeste 1.2 -- -- 99
2019-11-12 00:00:00 8.1 4 Sur 13 Noroeste 0.6 -- -- 99
2019-11-11 23:00:00 8.1 3 Norte 6 Sudeste 0.4 -- -- 98
2019-11-11 22:00:00 8.1 5 Sudeste 7 Sudeste 1.4 -- -- 98
2019-11-11 21:00:00 8.4 0 Calma 10 Sudeste 0 -- -- 95
2019-11-11 20:00:00 8.6 3 Sudeste 8 Nordeste 0 -- -- 94
2019-11-11 19:00:00 9.3 6 Sudoeste 16 Noroeste 0.2 -- -- 86
2019-11-11 18:00:00 10.1 7 Norte 27 Norte 0.2 -- -- 81
2019-11-11 17:00:00 10.5 8 Noroeste 34 Noroeste 0 -- -- 86
2019-11-11 16:00:00 10.8 11 Noroeste 32 Noroeste 0.2 -- -- 88
2019-11-11 15:00:00 10.2 13 Noroeste 39 Norte 0.8 -- -- 92
2019-11-11 14:00:00 11 27 Norte 42 Norte 0 -- -- 83
2019-11-11 13:00:00 10.8 12 Norte 56 Norte 0.4 -- -- 92
2019-11-11 12:00:00 10.7 33 Norte 58 Noroeste 1 -- -- 97
2019-11-11 11:00:00 12.2 19 Noroeste 57 Noroeste 2.8 -- -- 95
2019-11-11 10:00:00 9 4 Norte 8 Este 1.2 -- -- 100
2019-11-11 09:00:00 8.3 5 Oeste 11 Oeste 0.4 -- -- 99
2019-11-11 08:00:00 8 3 Noroeste 6 Noroeste 0.2 -- -- 100
2019-11-11 07:00:00 7.5 4 Noroeste 7 Noroeste 0 -- -- 100
2019-11-11 06:00:00 7.4 2 Sur 5 Sudoeste 0.2 -- -- 100
2019-11-11 05:00:00 7.1 0 Calma 5 Noroeste 0 -- -- 100
2019-11-11 04:00:00 7.1 3 Oeste 7 Noroeste 0 -- -- 100
2019-11-11 03:00:00 7.1 2 Noroeste 6 Sudeste 0 -- -- 100
2019-11-11 02:00:00 7.1 3 Sudeste 8 Noroeste 0 -- -- 99
2019-11-11 01:00:00 7.4 4 Norte 7 Norte 0 -- -- 99
2019-11-11 00:00:00 7.5 3 Sudeste 8 Este 0.2 -- -- 99
2019-11-10 23:00:00 7.6 3 Este 13 Sudeste 2.4 -- -- 98
2019-11-10 22:00:00 7.4 4 Sudeste 7 Sudoeste 1.8 -- -- 98
2019-11-10 21:00:00 7.2 4 Sudoeste 10 Sudoeste 2 -- -- 97
2019-11-10 20:00:00 7.1 0 Calma 8 Sur 1 -- -- 96
2019-11-10 19:00:00 7.4 4 Sur 28 Noroeste 0.8 -- -- 93
2019-11-10 18:00:00 8.4 13 Noroeste 25 Oeste 0.2 -- -- 88
2019-11-10 17:00:00 9 10 Noroeste 45 Noroeste 3 -- -- 85
2019-11-10 16:00:00 8.7 13 Norte 34 Norte 3.2 -- -- 86
2019-11-10 15:00:00 9.2 10 Noroeste 20 Noroeste 0 -- -- 93
2019-11-10 14:00:00 7.9 8 Oeste 55 Norte 1.4 -- -- 96
2019-11-10 13:00:00 8.4 12 Noroeste 45 Norte 1 -- -- 88
2019-11-10 12:00:00 8.6 14 Noroeste 49 Noroeste 2.2 -- -- 77
2019-11-10 11:00:00 7.6 8 Oeste 22 Noroeste 4.4 -- -- 93
2019-11-10 10:00:00 8.1 18 Norte 44 Nordeste 1.2 -- -- 88
2019-11-10 09:00:00 7.4 13 Noroeste 35 Noroeste 3.2 -- -- 92
2019-11-10 08:00:00 5.6 3 Sudoeste 22 Este 10.6 -- -- 94
2019-11-10 07:00:00 6.2 6 Este 17 Este 6.2 -- -- 93
2019-11-10 06:00:00 6.8 4 Oeste 19 Noroeste 2.8 -- -- 92
2019-11-10 05:00:00 6.2 4 Sur 27 Este 1 -- -- 96
2019-11-10 04:00:00 6.2 4 Noroeste 24 Oeste 5.6 -- -- 94
2019-11-10 03:00:00 6.4 4 Este 13 Norte 0.8 -- -- 96
2019-11-10 02:00:00 6.4 3 Sudoeste 42 Noroeste 4.2 -- -- 93
2019-11-10 01:00:00 7.1 3 Sur 24 Oeste 0.4 -- -- 95
2019-11-10 00:00:00 7 3 Sur 39 Norte 6.4 -- -- 95
2019-11-09 23:00:00 9.1 13 Oeste 28 Noroeste 1 -- -- 85
2019-11-09 22:00:00 9.2 8 Oeste 24 Noroeste 0.2 -- -- 89
2019-11-09 21:00:00 9 8 Norte 61 Noroeste 3 -- -- 91
2019-11-09 20:00:00 9 16 Noroeste 41 Sudoeste 9.4 -- -- 92
2019-11-09 19:00:00 9.5 19 Noroeste 49 Noroeste 3.4 -- -- 91
2019-11-09 18:00:00 11.4 8 Norte 36 Noroeste 0 -- -- 83
2019-11-09 17:00:00 11.6 21 Noroeste 50 Noroeste 2.6 -- -- 84
2019-11-09 16:00:00 12.6 13 Noroeste 48 Noroeste 0.2 -- -- 85
2019-11-09 15:00:00 12.1 10 Noroeste 29 Noroeste 1 -- -- 91
2019-11-09 14:00:00 11.8 4 Oeste 12 Noroeste 0 -- -- 88
2019-11-09 13:00:00 11.5 5 Sudoeste 27 Sudeste 0 -- -- 86
2019-11-09 12:00:00 9.9 5 Sudeste 23 Sudeste 0.8 -- -- 88
2019-11-09 11:00:00 9.7 10 Sudeste 23 Este 0.2 -- -- 79
2019-11-09 10:00:00 9.1 3 Sudeste 10 Sur 0.2 -- -- 88
2019-11-09 09:00:00 8 2 Sur 6 Noroeste 0 -- -- 96
2019-11-09 08:00:00 7.8 2 Norte 6 Noroeste 0 -- -- 95
2019-11-09 07:00:00 8 3 Este 9 Sudeste 0 -- -- 96
2019-11-09 06:00:00 8.2 0 Calma 10 Este 0.2 -- -- 96
2019-11-09 05:00:00 8.3 5 Sudeste 9 Este 0.2 -- -- 96
2019-11-09 04:00:00 8.1 3 Sur 10 Este 0 -- -- 96
2019-11-09 03:00:00 8.2 5 Sudeste 10 Sudeste 1 -- -- 96
2019-11-09 02:00:00 8.5 2 Oeste 16 Noroeste 1 -- -- 93
2019-11-09 01:00:00 9.1 10 Noroeste 23 Noroeste 0.8 -- -- 87
2019-11-09 00:00:00 8.4 6 Norte 26 Oeste 3 -- -- 92
2019-11-08 23:00:00 9.3 10 Noroeste 34 Oeste 0 -- -- 81
2019-11-08 22:00:00 9.5 13 Noroeste 26 Noroeste 0 -- -- 80
2019-11-08 21:00:00 9.5 9 Noroeste 37 Noroeste 0 -- -- 77
2019-11-08 20:00:00 10 16 Noroeste 35 Noroeste 0 -- -- 75
2019-11-08 19:00:00 9.6 14 Noroeste 42 Oeste 0.2 -- -- 75
2019-11-08 18:00:00 9.6 21 Noroeste 41 Noroeste 0.8 -- -- 81
2019-11-08 17:00:00 9.5 14 Noroeste 60 Oeste 1.2 -- -- 83
2019-11-08 16:00:00 8.9 16 Noroeste 40 Noroeste 4.4 -- -- 88
2019-11-08 15:00:00 8.9 15 Noroeste 44 Oeste 10.4 -- -- 85
2019-11-08 14:00:00 9.1 15 Oeste 46 Noroeste 6.2 -- -- 86
2019-11-08 13:00:00 6.5 18 Norte 46 Oeste 10 -- -- 92
2019-11-08 12:00:00 7.1 12 Nordeste 62 Oeste 7.2 -- -- 93
2019-11-08 11:00:00 9.5 19 Oeste 48 Oeste 0.8 -- -- 77
2019-11-08 10:00:00 8.6 10 Noroeste 52 Noroeste 1 -- -- 82
2019-11-08 09:00:00 8.9 18 Oeste 50 Oeste 1.2 -- -- 76
2019-11-08 08:00:00 8.3 9 Oeste 37 Oeste 0.4 -- -- 80
2019-11-08 07:00:00 8.9 14 Oeste 43 Oeste 0.2 -- -- 72
2019-11-08 06:00:00 8.7 12 Oeste 37 Oeste 0.2 -- -- 75
2019-11-08 05:00:00 8.2 12 Oeste 33 Sudoeste 0.6 -- -- 78
2019-11-08 04:00:00 7.5 13 Sudoeste 44 Oeste 0.6 -- -- 78
2019-11-08 03:00:00 7.1 5 Sudoeste 42 Oeste 0.8 -- -- 81
2019-11-08 02:00:00 6.8 5 Sudeste 29 Sudoeste 1.2 -- -- 83
2019-11-08 01:00:00 6.9 6 Sudoeste 19 Sudoeste 0.2 -- -- 80
2019-11-08 00:00:00 6.7 9 Sudeste 28 Oeste 0 -- -- 81
2019-11-07 23:00:00 7.5 19 Oeste 47 Oeste 0.2 -- -- 72
2019-11-07 22:00:00 7.8 10 Oeste 22 Oeste 0 -- -- 66
2019-11-07 21:00:00 7.5 5 Nordeste 22 Noroeste 0 -- -- 71
2019-11-07 20:00:00 7.4 5 Sudeste 22 Sudoeste 0 -- -- 78
2019-11-07 19:00:00 8 2 Sudoeste 26 Noroeste 0 -- -- 77
2019-11-07 18:00:00 8.9 3 Sudeste 10 Noroeste 0 -- -- 72
2019-11-07 17:00:00 10.4 5 Noroeste 32 Noroeste 0 -- -- 66
2019-11-07 16:00:00 9.7 4 Nordeste 27 Noroeste 0.2 -- -- 76
2019-11-07 15:00:00 8.9 11 Noroeste 43 Noroeste 0.2 -- -- 83
2019-11-07 14:00:00 11 13 Noroeste 24 Noroeste 0 -- -- 70
2019-11-07 13:00:00 11.5 14 Noroeste 28 Noroeste 0 -- -- 59
2019-11-07 12:00:00 11.8 15 Noroeste 30 Noroeste 0 -- -- 65
2019-11-07 11:00:00 10.9 7 Noroeste 15 Noroeste 0 -- -- 68
2019-11-07 10:00:00 8.6 4 Sur 21 Sudeste 0 -- -- 79
2019-11-07 09:00:00 7.7 11 Noroeste 45 Noroeste 0.2 -- -- 88
2019-11-07 08:00:00 9.4 12 Noroeste 27 Noroeste 0 -- -- 79
2019-11-07 07:00:00 9.7 9 Noroeste 18 Oeste 0 -- -- 76
2019-11-07 06:00:00 10.1 4 Noroeste 27 Noroeste 0 -- -- 77
2019-11-07 05:00:00 10.2 5 Noroeste 37 Norte 0 -- -- 80
2019-11-07 04:00:00 10.8 7 Noroeste 15 Oeste 0 -- -- 82
2019-11-07 03:00:00 10.8 4 Sudoeste 28 Noroeste 0.2 -- -- 85
2019-11-07 02:00:00 11.2 14 Noroeste 43 Oeste 0 -- -- 89
2019-11-07 01:00:00 12.2 19 Noroeste 37 Oeste 1.6 -- -- 89
2019-11-07 00:00:00 11.2 4 Norte 12 Noroeste 5 -- -- 97
2019-11-06 23:00:00 11.7 0 Calma 13 Noroeste 0.4 -- -- 93
2019-11-06 22:00:00 12.5 8 Sur 25 Sudeste 0.6 -- -- 81
2019-11-06 21:00:00 12.5 9 Este 17 Sur 0.6 -- -- 83
2019-11-06 20:00:00 12.6 7 Sur 13 Sur 0 -- -- 79
2019-11-06 19:00:00 12.6 4 Sudeste 9 Sudeste 0 -- -- 84
2019-11-06 18:00:00 13.6 2 Este 5 Nordeste 0 -- -- 82
2019-11-06 17:00:00 14.4 4 Norte 8 Noroeste 0 -- -- 73
2019-11-06 16:00:00 15.1 5 Noroeste 8 Norte 0 -- -- 64
2019-11-06 15:00:00 15.5 4 Noroeste 13 Sudeste 0 -- -- 63
2019-11-06 14:00:00 14.9 10 Sudeste 22 Sudeste 0 -- -- 68
2019-11-06 13:00:00 13.2 8 Sudeste 10 Sudeste 0 -- -- 78
2019-11-06 12:00:00 12.1 4 Norte 8 Este 0 -- -- 89
2019-11-06 11:00:00 11.1 3 Este 8 Sudeste 0 -- -- 87
2019-11-06 10:00:00 10.2 3 Este 9 Este 0 -- -- 91
2019-11-06 09:00:00 9.2 4 Norte 9 Sudeste 0 -- -- 96
2019-11-06 08:00:00 9.3 3 Sudeste 9 Este 0.2 -- -- 93
2019-11-06 07:00:00 10.3 2 Sudeste 28 Noroeste 0 -- -- 84
2019-11-06 06:00:00 10 3 Sudeste 8 Nordeste 0.2 -- -- 93
2019-11-06 05:00:00 10.3 3 Noroeste 11 Noroeste 0.2 -- -- 90
2019-11-06 04:00:00 10.3 9 Noroeste 21 Noroeste 1.6 -- -- 92
2019-11-06 03:00:00 10.5 9 Noroeste 25 Noroeste 0.2 -- -- 92
2019-11-06 02:00:00 10.5 9 Noroeste 29 Oeste 2.2 -- -- 91
2019-11-06 01:00:00 11 11 Noroeste 22 Noroeste 2.4 -- -- 91
2019-11-06 00:00:00 11.3 8 Noroeste 28 Noroeste 0 -- -- 90